Previous Day
Next Day
Current Day
SHEF ID: FVSO2 FAIRVIEW
STATION TYPE: Mesonet
PRECIP AIR-TEMP WIND-DIRWIND-SPEED REL-HUMID SOLAR-RAD
in F deg mph % W/m2
Raw-Meson Raw-Meson Raw-Meson Raw-Meson Raw-Meson Raw-Meson
(US/Central)
05/20 00:00 0.00 64.90 151.50 4.59 94.25 0.00
05/20 01:00 0.00 64.49 244.50 4.20 90.00 0.00
05/20 02:00 0.04 62.92 235.00 1.17 88.25 0.00
05/20 03:00 0.18 62.15 252.00 4.03 92.25 0.00
05/20 04:00 0.00 60.48 179.75 3.02 96.75 0.00
05/20 05:00 0.00 59.50 153.75 2.46 98.00 0.00
05/20 06:00 0.00 57.56 191.25 2.85 98.75 0.00
05/20 07:00 0.00 57.47 217.25 3.08 99.00 13.00
05/20 08:00 0.00 60.80 181.50 2.29 99.00 32.75
05/20 09:00 0.00 63.59 151.25 5.82 99.00 97.00
05/20 10:00 0.00 65.48 146.50 7.44 99.00 217.00
05/20 11:00 0.00 67.33 144.75 9.28 92.25 411.00
05/20 12:00 0.00 72.14 138.25 11.57 79.00 666.00
05/20 13:00 0.00 73.44 148.00 12.42 73.00 376.50
05/20 14:00 0.00 73.94 145.50 11.19 70.75 425.50
05/20 15:00 0.00 76.06 143.50 13.31 64.25 681.50
05/20 16:00 0.00 74.66 132.25 14.32 67.25 370.50
05/20 17:00 0.00 76.19 138.50 13.59 60.25 614.75
05/20 18:00 0.00 75.11 132.25 14.43 62.50 460.00
05/20 19:00 0.00 75.25 146.25 12.08 60.50 344.75
05/20 20:00 0.00 73.58 143.00 10.90 65.00 142.50
05/20 21:00 0.00 69.39 132.50 9.17 81.75 11.00
05/20 22:00 0.00 67.14 139.75 7.27 88.25 0.00
05/20 23:00 ---- 64.99 148.25 6.43 93.25 0.00